Time;durP1;ratioP1;P1;durP2;ratioP2;P2;SDS_P1;SDS_P2;PMS_P1;PMS_P2;Temp;Humidity;BMP_temperature;BMP_pressure;BME280_temperature;BME280_humidity;BME280_pressure;Samples;Min_cycle;Max_cycle;Signal;HPM_P1;HPM_P2
2023/06/05 00:01:58;;;;;;;;;;;16.70;93.70;;;;;;5058693;28;19912;-79
2023/06/05 00:04:24;;;;;;;;;;;16.70;93.70;;;;;;5060454;28;19919;-79
2023/06/05 00:06:53;;;;;;;;;;;16.70;93.70;;;;;;5058963;28;20484;-79
2023/06/05 00:09:18;;;;;;;;;;;16.70;93.80;;;;;;5055870;28;19974;-79
2023/06/05 00:11:44;;;;;;;;;;;16.60;93.80;;;;;;5040799;28;20030;-79
2023/06/05 00:14:09;;;;;;;;;;;16.60;93.90;;;;;;5054945;28;19963;-79
2023/06/05 00:16:35;;;;;;;;;;;16.60;94.00;;;;;;5061664;28;19912;-79
2023/06/05 00:19:01;;;;;;;;;;;16.60;94.00;;;;;;5038699;28;20310;-79
2023/06/05 00:21:26;;;;;;;;;;;16.60;94.10;;;;;;5060429;28;19919;-79
2023/06/05 00:23:52;;;;;;;;;;;16.60;94.10;;;;;;5037989;28;19976;-79
2023/06/05 00:26:17;;;;;;;;;;;16.50;94.20;;;;;;5057483;28;19912;-79
2023/06/05 00:28:43;;;;;;;;;;;16.50;94.30;;;;;;5057658;28;19913;-79
2023/06/05 00:31:09;;;;;;;;;;;16.40;94.50;;;;;;5054648;28;19912;-79
2023/06/05 00:33:34;;;;;;;;;;;16.30;94.60;;;;;;5060129;28;19961;-79
2023/06/05 00:36:00;;;;;;;;;;;16.40;94.60;;;;;;5054015;28;19975;-79
2023/06/05 00:38:26;;;;;;;;;;;16.30;94.60;;;;;;5034348;28;19912;-79
2023/06/05 00:40:51;;;;;;;;;;;16.30;94.70;;;;;;5055917;28;19940;-79
2023/06/05 00:43:17;;;;;;;;;;;16.30;94.70;;;;;;5056656;28;19985;-78
2023/06/05 00:45:42;;;;;;;;;;;16.20;94.70;;;;;;5060023;28;19912;-79
2023/06/05 00:48:08;;;;;;;;;;;16.20;94.80;;;;;;5055593;28;19908;-79
2023/06/05 00:50:34;;;;;;;;;;;16.20;94.80;;;;;;5033363;28;19974;-79
2023/06/05 00:53:03;;;;;;;;;;;16.20;94.80;;;;;;5053571;28;19921;-79
2023/06/05 00:55:29;;;;;;;;;;;16.30;94.80;;;;;;5037616;28;19950;-79
2023/06/05 00:57:55;;;;;;;;;;;16.20;94.80;;;;;;5058234;28;19950;-79
2023/06/05 01:00:21;;;;;;;;;;;16.20;94.80;;;;;;5055803;28;20420;-79
2023/06/05 01:02:47;;;;;;;;;;;16.20;94.90;;;;;;5036613;28;19918;-78
2023/06/05 01:05:13;;;;;;;;;;;16.10;94.90;;;;;;5048364;28;20015;-78
2023/06/05 01:07:39;;;;;;;;;;;16.10;94.90;;;;;;5056257;28;19921;-78
2023/06/05 01:10:06;;;;;;;;;;;16.10;94.90;;;;;;5051543;28;20393;-77
2023/06/05 01:13:07;;;;;;;;;;;16.10;95.00;;;;;;5041322;28;19935;-77
2023/06/05 01:15:33;;;;;;;;;;;16.10;95.10;;;;;;4975418;28;19914;-77
2023/06/05 01:18:00;;;;;;;;;;;16.00;95.10;;;;;;5043433;28;20367;-77
2023/06/05 01:20:33;;;;;;;;;;;16.00;95.20;;;;;;5062079;28;19924;-77
2023/06/05 01:22:58;;;;;;;;;;;16.00;95.30;;;;;;5054647;28;19913;-77
2023/06/05 01:25:25;;;;;;;;;;;16.00;95.40;;;;;;5060105;28;20669;-80
2023/06/05 01:27:54;;;;;;;;;;;15.90;95.50;;;;;;5059209;28;19916;-79
2023/06/05 01:30:24;;;;;;;;;;;15.80;95.60;;;;;;5062210;28;20289;-79
2023/06/05 01:32:53;;;;;;;;;;;15.80;95.50;;;;;;5057745;28;20379;-78
2023/06/05 01:35:19;;;;;;;;;;;15.90;95.60;;;;;;5061123;28;20016;-79
2023/06/05 01:37:48;;;;;;;;;;;15.80;95.70;;;;;;5037986;28;19919;-79
2023/06/05 01:40:19;;;;;;;;;;;15.80;95.70;;;;;;5057976;28;19912;-78
2023/06/05 01:42:46;;;;;;;;;;;15.80;95.70;;;;;;5059714;28;19971;-79
2023/06/05 01:45:11;;;;;;;;;;;15.70;95.90;;;;;;5041981;28;20030;-79
2023/06/05 01:47:37;;;;;;;;;;;15.60;96.10;;;;;;5041393;28;19912;-79
2023/06/05 01:50:03;;;;;;;;;;;15.70;96.10;;;;;;5056558;28;19913;-79
2023/06/05 01:52:29;;;;;;;;;;;15.50;96.20;;;;;;5062763;28;19921;-79
2023/06/05 01:54:54;;;;;;;;;;;15.50;96.40;;;;;;5064791;28;19919;-79
2023/06/05 01:57:20;;;;;;;;;;;15.40;96.50;;;;;;5043116;28;19916;-79
2023/06/05 01:59:46;;;;;;;;;;;15.40;96.60;;;;;;5059732;28;19913;-78
2023/06/05 02:02:14;;;;;;;;;;;15.40;96.60;;;;;;5058137;28;20029;-78
2023/06/05 02:04:40;;;;;;;;;;;15.40;96.70;;;;;;5061028;28;19912;-79
2023/06/05 02:07:07;;;;;;;;;;;15.40;96.70;;;;;;5063578;28;20479;-79
2023/06/05 02:09:32;;;;;;;;;;;15.40;96.90;;;;;;5063030;28;20402;-78
2023/06/05 02:11:58;;;;;;;;;;;15.40;96.90;;;;;;5057018;28;20395;-78
2023/06/05 02:14:24;;;;;;;;;;;15.40;96.60;;;;;;5055518;28;19908;-79
2023/06/05 02:16:50;;;;;;;;;;;15.40;96.60;;;;;;5052664;28;20373;-79
2023/06/05 02:19:16;;;;;;;;;;;15.50;96.50;;;;;;5059311;28;19920;-79
2023/06/05 02:21:42;;;;;;;;;;;15.50;96.30;;;;;;5047950;28;19966;-79
2023/06/05 02:24:07;;;;;;;;;;;15.40;96.40;;;;;;5034809;28;19916;-77
2023/06/05 02:26:33;;;;;;;;;;;15.30;96.60;;;;;;5055500;28;19919;-77
2023/06/05 02:28:59;;;;;;;;;;;15.30;96.80;;;;;;5060916;28;20003;-78
2023/06/05 02:31:25;;;;;;;;;;;15.20;96.80;;;;;;5054877;28;19935;-79
2023/06/05 02:33:51;;;;;;;;;;;15.20;96.90;;;;;;5044495;28;19920;-79
2023/06/05 02:36:17;;;;;;;;;;;15.20;97.10;;;;;;5062028;28;19954;-78
2023/06/05 02:38:43;;;;;;;;;;;15.10;97.20;;;;;;5063840;28;19988;-78
2023/06/05 02:41:09;;;;;;;;;;;15.10;97.30;;;;;;5055217;28;20458;-78
2023/06/05 02:43:34;;;;;;;;;;;15.10;97.50;;;;;;5052448;28;19918;-78
2023/06/05 02:46:00;;;;;;;;;;;15.00;97.60;;;;;;5038454;28;20323;-78
2023/06/05 02:48:25;;;;;;;;;;;14.90;97.80;;;;;;5061932;28;20059;-79
2023/06/05 02:50:51;;;;;;;;;;;15.00;97.80;;;;;;5045385;28;20007;-79
2023/06/05 02:53:17;;;;;;;;;;;14.90;97.90;;;;;;5062047;28;19963;-79
2023/06/05 02:55:42;;;;;;;;;;;14.90;97.80;;;;;;5064208;28;19909;-79
2023/06/05 02:58:08;;;;;;;;;;;14.90;97.70;;;;;;5062636;28;19908;-78
2023/06/05 03:00:34;;;;;;;;;;;14.80;98.00;;;;;;5058940;28;19908;-78
2023/06/05 03:03:00;;;;;;;;;;;14.80;98.00;;;;;;5058268;28;20281;-78
2023/06/05 03:05:27;;;;;;;;;;;14.80;98.00;;;;;;5063452;28;19943;-78
2023/06/05 03:07:53;;;;;;;;;;;14.70;98.20;;;;;;5061542;28;19971;-78
2023/06/05 03:10:22;;;;;;;;;;;14.70;98.00;;;;;;5063432;28;20279;-78
2023/06/05 03:12:47;;;;;;;;;;;14.80;97.90;;;;;;5057987;28;19947;-78
2023/06/05 03:15:13;;;;;;;;;;;14.80;97.90;;;;;;5061100;28;19912;-78
2023/06/05 03:17:39;;;;;;;;;;;14.70;97.90;;;;;;5058692;28;19952;-79
2023/06/05 03:20:06;;;;;;;;;;;14.70;98.00;;;;;;5048945;28;20071;-79
2023/06/05 03:22:32;;;;;;;;;;;14.70;98.10;;;;;;5058704;28;20710;-79
2023/06/05 03:24:57;;;;;;;;;;;14.60;98.10;;;;;;5034346;28;19991;-79
2023/06/05 03:27:23;;;;;;;;;;;14.60;98.40;;;;;;5056755;28;20441;-78
2023/06/05 03:29:48;;;;;;;;;;;14.70;98.40;;;;;;5060268;28;19912;-79
2023/06/05 03:32:14;;;;;;;;;;;14.60;98.50;;;;;;5057278;28;19958;-78
2023/06/05 03:34:42;;;;;;;;;;;14.60;98.50;;;;;;5051268;28;19913;-78
2023/06/05 03:37:08;;;;;;;;;;;14.60;98.90;;;;;;5061818;28;19919;-77
2023/06/05 03:39:33;;;;;;;;;;;14.60;98.80;;;;;;5042433;28;20290;-77
2023/06/05 03:42:00;;;;;;;;;;;14.60;98.80;;;;;;5040540;28;19971;-78
2023/06/05 03:44:25;;;;;;;;;;;14.60;98.70;;;;;;5059164;28;19912;-77
2023/06/05 03:46:51;;;;;;;;;;;14.50;98.70;;;;;;5061731;28;19928;-77
2023/06/05 03:49:18;;;;;;;;;;;14.50;98.80;;;;;;5057845;28;19962;-78
2023/06/05 03:51:44;;;;;;;;;;;14.50;98.80;;;;;;5041801;28;20580;-77
2023/06/05 03:54:10;;;;;;;;;;;14.50;98.70;;;;;;5059086;28;19912;-77
2023/06/05 03:56:39;;;;;;;;;;;14.50;98.90;;;;;;5060658;28;19993;-77
2023/06/05 03:59:18;;;;;;;;;;;14.40;98.90;;;;;;5062050;28;20401;-77
2023/06/05 04:01:43;;;;;;;;;;;14.40;98.90;;;;;;5050232;28;19916;-77
2023/06/05 04:04:09;;;;;;;;;;;14.40;98.90;;;;;;5053659;28;19917;-77
2023/06/05 04:06:36;;;;;;;;;;;14.50;98.80;;;;;;5050279;28;19948;-78
2023/06/05 04:09:08;;;;;;;;;;;14.40;98.60;;;;;;5052798;28;20390;-78
2023/06/05 04:11:34;;;;;;;;;;;14.50;98.60;;;;;;5049510;28;19913;-78
2023/06/05 04:13:59;;;;;;;;;;;14.50;98.40;;;;;;5059651;28;19921;-78
2023/06/05 04:16:25;;;;;;;;;;;14.50;98.40;;;;;;5053467;28;19912;-78
2023/06/05 04:18:50;;;;;;;;;;;14.50;98.30;;;;;;5058785;28;20492;-78
2023/06/05 04:21:16;;;;;;;;;;;14.50;98.20;;;;;;5057913;28;20036;-81
2023/06/05 04:23:42;;;;;;;;;;;14.60;98.40;;;;;;5040044;28;19913;-80
2023/06/05 04:26:07;;;;;;;;;;;14.60;98.10;;;;;;5054531;28;20399;-81
2023/06/05 04:28:34;;;;;;;;;;;14.60;98.10;;;;;;5057875;28;19955;-80
2023/06/05 04:31:01;;;;;;;;;;;14.50;98.00;;;;;;5056993;28;19909;-79
2023/06/05 04:33:27;;;;;;;;;;;14.50;98.00;;;;;;5057443;28;19920;-80
2023/06/05 04:35:53;;;;;;;;;;;14.60;98.00;;;;;;5051849;28;19917;-81
2023/06/05 04:38:20;;;;;;;;;;;14.50;98.00;;;;;;5057920;28;19974;-81
2023/06/05 04:40:48;;;;;;;;;;;14.60;97.90;;;;;;5059764;28;19918;-81
2023/06/05 04:43:14;;;;;;;;;;;14.60;97.70;;;;;;5052220;28;19953;-80
2023/06/05 04:45:41;;;;;;;;;;;14.70;97.50;;;;;;5057383;28;19935;-81
2023/06/05 04:48:06;;;;;;;;;;;14.70;97.30;;;;;;5059227;28;19908;-82
2023/06/05 04:50:33;;;;;;;;;;;14.70;97.30;;;;;;5063224;28;19923;-81
2023/06/05 04:52:59;;;;;;;;;;;14.80;97.20;;;;;;5061853;28;19917;-80
2023/06/05 04:55:24;;;;;;;;;;;14.80;97.00;;;;;;5062660;28;19965;-79
2023/06/05 04:57:50;;;;;;;;;;;15.00;96.70;;;;;;5062174;28;19913;-78
2023/06/05 05:00:16;;;;;;;;;;;14.90;96.70;;;;;;5061815;28;20580;-78
2023/06/05 05:02:41;;;;;;;;;;;15.10;96.50;;;;;;5058044;28;19970;-79
2023/06/05 05:05:08;;;;;;;;;;;15.10;96.30;;;;;;5053453;28;19983;-80
2023/06/05 05:07:35;;;;;;;;;;;15.20;96.10;;;;;;5052425;28;19921;-78
2023/06/05 05:10:01;;;;;;;;;;;15.30;95.90;;;;;;5058441;28;20457;-79
2023/06/05 05:12:26;;;;;;;;;;;15.20;96.00;;;;;;5056357;28;19920;-79
2023/06/05 05:14:52;;;;;;;;;;;15.30;95.90;;;;;;5042505;28;20007;-80
2023/06/05 05:17:19;;;;;;;;;;;15.30;95.70;;;;;;5054890;28;19918;-80
2023/06/05 05:19:45;;;;;;;;;;;15.20;96.00;;;;;;5051406;28;20352;-79
2023/06/05 05:22:10;;;;;;;;;;;15.30;95.60;;;;;;5058822;28;19924;-78
2023/06/05 05:24:36;;;;;;;;;;;15.30;95.40;;;;;;5038033;28;20802;-78
2023/06/05 05:27:02;;;;;;;;;;;15.40;95.40;;;;;;5058026;28;19913;-80
2023/06/05 05:29:28;;;;;;;;;;;15.40;95.20;;;;;;5054717;28;19935;-78
2023/06/05 05:31:53;;;;;;;;;;;15.60;94.90;;;;;;5053505;28;19913;-79
2023/06/05 05:34:20;;;;;;;;;;;15.60;94.80;;;;;;5058933;28;20667;-77
2023/06/05 05:36:45;;;;;;;;;;;15.80;94.30;;;;;;5055535;28;19916;-79
2023/06/05 05:39:11;;;;;;;;;;;16.10;93.70;;;;;;5059738;28;20382;-77
2023/06/05 05:41:37;;;;;;;;;;;16.20;93.30;;;;;;5056178;28;20686;-78
2023/06/05 05:44:02;;;;;;;;;;;16.20;93.20;;;;;;5058489;28;19919;-78
2023/06/05 05:46:28;;;;;;;;;;;16.60;92.60;;;;;;5061016;28;21231;-79
2023/06/05 05:48:54;;;;;;;;;;;16.90;92.00;;;;;;5061009;28;20010;-78
2023/06/05 05:51:21;;;;;;;;;;;17.10;91.50;;;;;;5056887;28;19920;-78
2023/06/05 05:53:46;;;;;;;;;;;17.80;90.30;;;;;;5043743;28;19943;-77
2023/06/05 05:56:12;;;;;;;;;;;17.70;90.10;;;;;;5059844;28;20329;-78
2023/06/05 05:58:37;;;;;;;;;;;17.70;90.30;;;;;;5061249;28;20003;-78
2023/06/05 06:01:03;;;;;;;;;;;17.70;90.50;;;;;;5064798;28;20018;-78
2023/06/05 06:03:29;;;;;;;;;;;17.90;90.30;;;;;;5060408;28;19919;-78
2023/06/05 06:05:56;;;;;;;;;;;18.00;89.70;;;;;;5042559;28;19919;-77
2023/06/05 06:08:21;;;;;;;;;;;18.20;89.80;;;;;;5057079;28;20349;-78
2023/06/05 06:10:47;;;;;;;;;;;18.30;89.50;;;;;;5064613;28;19908;-78
2023/06/05 06:13:13;;;;;;;;;;;18.40;88.80;;;;;;5063879;28;19920;-78
2023/06/05 06:15:39;;;;;;;;;;;18.40;88.30;;;;;;5063579;28;19916;-78
2023/06/05 06:18:05;;;;;;;;;;;18.60;87.60;;;;;;5044883;28;19967;-77
2023/06/05 06:20:31;;;;;;;;;;;18.70;86.80;;;;;;5046105;28;19912;-76
2023/06/05 06:22:57;;;;;;;;;;;18.90;86.10;;;;;;5055926;28;19947;-82
2023/06/05 06:25:28;;;;;;;;;;;19.30;84.30;;;;;;5059002;28;20003;-79
2023/06/05 06:28:00;;;;;;;;;;;18.90;85.00;;;;;;5062817;28;19909;-79
2023/06/05 06:30:27;;;;;;;;;;;18.70;85.80;;;;;;5051621;28;20371;-79
2023/06/05 06:32:54;;;;;;;;;;;18.70;85.70;;;;;;5060452;28;19917;-80
2023/06/05 06:35:20;;;;;;;;;;;18.90;85.60;;;;;;5063919;28;19912;-79
2023/06/05 06:37:45;;;;;;;;;;;18.60;85.80;;;;;;5062248;28;19908;-80
2023/06/05 06:40:11;;;;;;;;;;;18.40;86.80;;;;;;5062009;28;20497;-79
2023/06/05 06:42:37;;;;;;;;;;;18.60;86.50;;;;;;5061798;28;19952;-80
2023/06/05 06:45:04;;;;;;;;;;;18.70;86.20;;;;;;5063375;28;19908;-80
2023/06/05 06:47:30;;;;;;;;;;;18.80;85.40;;;;;;5060229;28;19935;-80
2023/06/05 06:49:56;;;;;;;;;;;18.90;85.30;;;;;;5063915;28;19908;-79
2023/06/05 06:52:22;;;;;;;;;;;19.10;85.40;;;;;;5058529;28;19917;-80
2023/06/05 06:54:48;;;;;;;;;;;19.20;84.50;;;;;;5059454;28;19920;-79
2023/06/05 06:57:13;;;;;;;;;;;19.20;84.70;;;;;;5055227;28;19912;-80
2023/06/05 06:59:40;;;;;;;;;;;19.30;84.30;;;;;;5061416;28;19908;-79
2023/06/05 07:02:16;;;;;;;;;;;19.30;84.20;;;;;;5062871;28;20413;-79
2023/06/05 07:04:43;;;;;;;;;;;19.60;82.90;;;;;;5048189;28;19915;-80
2023/06/05 07:07:10;;;;;;;;;;;19.70;82.30;;;;;;5068182;28;20657;-79
2023/06/05 07:09:36;;;;;;;;;;;19.80;81.10;;;;;;5059691;28;19999;-80
2023/06/05 07:12:04;;;;;;;;;;;20.10;80.40;;;;;;5063018;28;20414;-79
2023/06/05 07:14:30;;;;;;;;;;;20.70;78.30;;;;;;5032272;28;20312;-79
2023/06/05 07:16:58;;;;;;;;;;;21.00;76.90;;;;;;5045182;28;20600;-80
2023/06/05 07:19:24;;;;;;;;;;;21.10;77.00;;;;;;5062534;28;19908;-80
2023/06/05 07:21:50;;;;;;;;;;;21.70;75.40;;;;;;5063117;28;20108;-80
2023/06/05 07:24:18;;;;;;;;;;;21.60;74.90;;;;;;5044324;28;19931;-79
2023/06/05 07:26:44;;;;;;;;;;;21.80;74.70;;;;;;5044841;28;19909;-79
2023/06/05 07:29:10;;;;;;;;;;;22.20;73.10;;;;;;5062363;28;20279;-79
2023/06/05 07:31:36;;;;;;;;;;;21.70;74.60;;;;;;5050185;28;19916;-79
2023/06/05 07:34:02;;;;;;;;;;;21.40;74.90;;;;;;5055763;28;19938;-80
2023/06/05 07:36:28;;;;;;;;;;;21.70;73.80;;;;;;5062952;28;19947;-80
2023/06/05 07:38:54;;;;;;;;;;;22.60;71.40;;;;;;5058176;28;19995;-79
2023/06/05 07:41:20;;;;;;;;;;;23.90;67.70;;;;;;5059235;28;19953;-79
2023/06/05 07:43:46;;;;;;;;;;;23.60;67.20;;;;;;5062120;28;19908;-80
2023/06/05 07:46:12;;;;;;;;;;;23.40;67.40;;;;;;5063140;28;19908;-80
2023/06/05 07:48:37;;;;;;;;;;;24.90;65.50;;;;;;5062032;28;19915;-81
2023/06/05 07:51:03;;;;;;;;;;;27.70;59.20;;;;;;5044953;28;19908;-80
2023/06/05 07:53:29;;;;;;;;;;;31.40;51.90;;;;;;5062030;28;19920;-81
2023/06/05 07:55:57;;;;;;;;;;;32.90;47.10;;;;;;5062567;28;20276;-80
2023/06/05 07:58:22;;;;;;;;;;;32.40;43.10;;;;;;5060409;28;19915;-80
2023/06/05 08:00:48;;;;;;;;;;;32.60;44.40;;;;;;5047764;28;19908;-80
2023/06/05 08:03:19;;;;;;;;;;;33.50;45.40;;;;;;5060841;28;20616;-80
2023/06/05 08:05:48;;;;;;;;;;;34.10;44.00;;;;;;5060001;28;19912;-81
2023/06/05 08:08:14;;;;;;;;;;;34.60;43.60;;;;;;5059272;28;19970;-81
2023/06/05 08:10:40;;;;;;;;;;;35.00;42.50;;;;;;5032396;28;19922;-81
2023/06/05 08:13:06;;;;;;;;;;;35.70;42.20;;;;;;5061358;28;19916;-81
2023/06/05 08:15:32;;;;;;;;;;;35.60;41.80;;;;;;5059650;28;19915;-80
2023/06/05 08:17:57;;;;;;;;;;;32.90;45.00;;;;;;5045758;28;19909;-81
2023/06/05 08:20:23;;;;;;;;;;;33.70;45.40;;;;;;5041029;28;20397;-81
2023/06/05 08:22:49;;;;;;;;;;;35.10;42.00;;;;;;5062288;28;20405;-82
2023/06/05 08:25:14;;;;;;;;;;;36.00;42.10;;;;;;5061675;28;19978;-80
2023/06/05 08:27:40;;;;;;;;;;;36.60;41.40;;;;;;5061994;28;19920;-81
2023/06/05 08:30:06;;;;;;;;;;;36.40;39.30;;;;;;5056905;28;19909;-81
2023/06/05 08:32:32;;;;;;;;;;;36.40;39.50;;;;;;5058746;28;19927;-80
2023/06/05 08:34:58;;;;;;;;;;;37.00;39.80;;;;;;5057512;28;19916;-81
2023/06/05 08:37:23;;;;;;;;;;;37.50;39.10;;;;;;5055627;28;19935;-80
2023/06/05 08:39:50;;;;;;;;;;;37.30;38.00;;;;;;5041045;28;19908;-81
2023/06/05 08:42:18;;;;;;;;;;;37.70;37.90;;;;;;5056939;28;19908;-82
2023/06/05 08:44:47;;;;;;;;;;;37.00;38.60;;;;;;5059923;28;19947;-80
2023/06/05 08:47:13;;;;;;;;;;;36.00;38.80;;;;;;5061205;28;19923;-80
2023/06/05 08:49:40;;;;;;;;;;;35.00;42.70;;;;;;5061990;28;19915;-81
2023/06/05 08:52:06;;;;;;;;;;;36.80;40.60;;;;;;5056987;28;19909;-81
2023/06/05 08:54:36;;;;;;;;;;;37.50;40.80;;;;;;5056267;28;19915;-81
2023/06/05 08:57:03;;;;;;;;;;;38.90;39.70;;;;;;5061320;28;19908;-82
2023/06/05 08:59:29;;;;;;;;;;;39.40;39.60;;;;;;5054632;28;19963;-81
2023/06/05 09:01:55;;;;;;;;;;;39.20;37.00;;;;;;5057860;28;20016;-81
2023/06/05 09:04:21;;;;;;;;;;;39.00;38.60;;;;;;5061035;28;19912;-81
2023/06/05 09:06:47;;;;;;;;;;;39.50;37.60;;;;;;5061615;28;19920;-83
2023/06/05 09:09:14;;;;;;;;;;;39.80;37.30;;;;;;5059871;28;19929;-81
2023/06/05 09:11:39;;;;;;;;;;;40.40;38.10;;;;;;5052172;28;20012;-80
2023/06/05 09:14:05;;;;;;;;;;;39.90;37.20;;;;;;5046657;28;19917;-83
2023/06/05 09:16:37;;;;;;;;;;;38.80;36.70;;;;;;5061843;28;19912;-81
2023/06/05 09:19:03;;;;;;;;;;;39.90;36.20;;;;;;5047651;28;19916;-80
2023/06/05 09:21:30;;;;;;;;;;;40.10;37.00;;;;;;5054704;28;19908;-80
2023/06/05 09:24:14;;;;;;;;;;;40.20;35.10;;;;;;5061631;28;19915;-80
2023/06/05 09:26:50;;;;;;;;;;;39.30;35.30;;;;;;5043542;28;19909;-80
2023/06/05 09:29:22;;;;;;;;;;;39.50;36.00;;;;;;5028052;28;19915;-80
2023/06/05 09:31:48;;;;;;;;;;;39.30;35.30;;;;;;5060061;28;19908;-81
2023/06/05 09:34:20;;;;;;;;;;;39.90;36.20;;;;;;5055875;28;19916;-81
2023/06/05 09:36:46;;;;;;;;;;;40.20;35.50;;;;;;5056098;28;19909;-81
2023/06/05 09:39:15;;;;;;;;;;;40.60;34.80;;;;;;5064859;28;20534;-82
2023/06/05 09:41:44;;;;;;;;;;;40.60;35.50;;;;;;5046520;28;19909;-82
2023/06/05 09:44:11;;;;;;;;;;;40.10;34.40;;;;;;5058527;28;20298;-81
2023/06/05 09:46:52;;;;;;;;;;;40.50;34.70;;;;;;5064261;28;19908;-81
2023/06/05 09:49:18;;;;;;;;;;;40.50;35.70;;;;;;5029410;28;19954;-81
2023/06/05 09:51:44;;;;;;;;;;;40.30;34.40;;;;;;5063699;28;19924;-81
2023/06/05 09:54:11;;;;;;;;;;;40.00;34.90;;;;;;5054536;28;19920;-80
2023/06/05 09:56:39;;;;;;;;;;;39.90;33.90;;;;;;5058798;28;20436;-83
2023/06/05 09:59:05;;;;;;;;;;;41.00;34.50;;;;;;5059639;28;19909;-80
2023/06/05 10:01:33;;;;;;;;;;;40.50;34.00;;;;;;5063649;28;19912;-83
2023/06/05 10:04:00;;;;;;;;;;;38.80;31.90;;;;;;5055779;28;19919;-80
2023/06/05 10:06:29;;;;;;;;;;;38.40;34.40;;;;;;5069201;28;19920;-80
2023/06/05 10:08:57;;;;;;;;;;;37.70;38.30;;;;;;5062999;28;20513;-80
2023/06/05 10:11:25;;;;;;;;;;;39.60;36.80;;;;;;5064128;28;19915;-80
2023/06/05 10:13:51;;;;;;;;;;;38.90;36.90;;;;;;5056618;28;19957;-80
2023/06/05 10:16:17;;;;;;;;;;;39.90;36.80;;;;;;5064061;28;19954;-80
2023/06/05 10:18:47;;;;;;;;;;;40.20;35.60;;;;;;5060969;28;19912;-80
2023/06/05 10:21:14;;;;;;;;;;;39.40;34.10;;;;;;5061044;28;19909;-80
2023/06/05 10:23:40;;;;;;;;;;;40.50;35.00;;;;;;5046125;28;20297;-81
2023/06/05 10:26:08;;;;;;;;;;;39.10;35.10;;;;;;5064581;28;19909;-82
2023/06/05 10:28:52;;;;;;;;;;;39.80;35.70;;;;;;5062290;28;19958;-80
2023/06/05 10:31:47;;;;;;;;;;;40.20;34.90;;;;;;5062583;28;19962;-81
2023/06/05 10:34:23;;;;;;;;;;;40.60;33.90;;;;;;5036840;28;19924;-81
2023/06/05 10:37:05;;;;;;;;;;;40.50;33.40;;;;;;5061622;28;19908;-81
2023/06/05 10:39:33;;;;;;;;;;;40.00;32.80;;;;;;5064311;28;19912;-82
2023/06/05 10:41:59;;;;;;;;;;;38.70;35.00;;;;;;5064570;28;19912;-81
2023/06/05 10:44:40;;;;;;;;;;;36.50;35.50;;;;;;5063672;28;19908;-80
2023/06/05 10:47:29;;;;;;;;;;;34.80;37.50;;;;;;5064220;28;20818;-81
2023/06/05 10:50:13;;;;;;;;;;;33.90;42.80;;;;;;5043470;28;19952;-80
2023/06/05 10:52:39;;;;;;;;;;;32.90;43.60;;;;;;5056646;28;19915;-80
2023/06/05 10:55:05;;;;;;;;;;;31.70;44.30;;;;;;5056530;28;19915;-81
2023/06/05 10:57:50;;;;;;;;;;;31.00;46.00;;;;;;5050587;28;19912;-80
2023/06/05 11:00:16;;;;;;;;;;;30.40;48.70;;;;;;5057841;28;19908;-80
2023/06/05 11:02:48;;;;;;;;;;;30.50;49.50;;;;;;5063743;28;19915;-81
2023/06/05 11:05:13;;;;;;;;;;;30.00;46.50;;;;;;5045240;28;19916;-80
2023/06/05 11:07:40;;;;;;;;;;;29.70;48.30;;;;;;5062049;28;19965;-80
2023/06/05 11:10:10;;;;;;;;;;;29.70;49.70;;;;;;5062710;28;19940;-80
2023/06/05 11:12:35;;;;;;;;;;;29.50;52.30;;;;;;5041286;28;20283;-80
2023/06/05 11:15:01;;;;;;;;;;;28.90;51.60;;;;;;5059232;28;19912;-80
2023/06/05 11:17:30;;;;;;;;;;;29.00;50.20;;;;;;5061528;28;19908;-80
2023/06/05 11:19:56;;;;;;;;;;;28.70;52.20;;;;;;5059827;28;19908;-80
2023/06/05 11:22:22;;;;;;;;;;;28.70;52.40;;;;;;5059879;28;19908;-80
2023/06/05 11:25:06;;;;;;;;;;;28.80;50.30;;;;;;5062941;28;20564;-81
2023/06/05 11:27:42;;;;;;;;;;;28.80;52.20;;;;;;5062987;28;19908;-80
2023/06/05 11:30:15;;;;;;;;;;;28.70;51.70;;;;;;5056862;28;20802;-81
2023/06/05 11:32:41;;;;;;;;;;;28.50;53.30;;;;;;5059892;28;19963;-80
2023/06/05 11:35:08;;;;;;;;;;;28.50;52.20;;;;;;5062560;28;19991;-80
2023/06/05 11:37:34;;;;;;;;;;;28.70;51.60;;;;;;5062931;28;19908;-80
2023/06/05 11:40:05;;;;;;;;;;;28.50;48.00;;;;;;5063148;28;19966;-80
2023/06/05 11:42:31;;;;;;;;;;;28.00;47.50;;;;;;5044402;28;19908;-81
2023/06/05 11:44:56;;;;;;;;;;;28.20;53.30;;;;;;5062973;28;19915;-81
2023/06/05 11:47:26;;;;;;;;;;;28.20;52.00;;;;;;5063156;28;19953;-80
2023/06/05 11:49:52;;;;;;;;;;;28.40;52.80;;;;;;5051084;28;19909;-80
2023/06/05 11:52:18;;;;;;;;;;;28.30;50.50;;;;;;5062963;28;19914;-82
2023/06/05 11:54:53;;;;;;;;;;;28.10;49.00;;;;;;5056349;28;19961;-82
2023/06/05 11:57:18;;;;;;;;;;;28.10;47.30;;;;;;5057674;28;19915;-80
2023/06/05 11:59:44;;;;;;;;;;;28.00;51.70;;;;;;5057435;28;19908;-81
2023/06/05 12:02:10;;;;;;;;;;;28.00;52.50;;;;;;5063089;28;19919;-80
2023/06/05 12:04:39;;;;;;;;;;;28.10;53.30;;;;;;5050770;28;19909;-81
2023/06/05 12:07:04;;;;;;;;;;;28.00;53.00;;;;;;5062732;28;20399;-80
2023/06/05 12:09:30;;;;;;;;;;;27.80;50.40;;;;;;5050802;28;20736;-80
2023/06/05 12:12:06;;;;;;;;;;;27.90;52.10;;;;;;5062144;28;19995;-80
2023/06/05 12:14:32;;;;;;;;;;;27.80;50.70;;;;;;5054086;28;20371;-81
2023/06/05 12:16:58;;;;;;;;;;;27.60;50.30;;;;;;5056508;28;19943;-80
2023/06/05 12:19:23;;;;;;;;;;;27.60;51.20;;;;;;5062420;28;19912;-80
2023/06/05 12:21:54;;;;;;;;;;;27.60;49.10;;;;;;5062248;28;19952;-80
2023/06/05 12:24:26;;;;;;;;;;;27.70;48.90;;;;;;5052146;28;19911;-80
2023/06/05 12:26:53;;;;;;;;;;;27.80;49.90;;;;;;5057755;28;20557;-81
2023/06/05 12:29:22;;;;;;;;;;;27.80;51.00;;;;;;5062328;28;19909;-79
2023/06/05 12:31:48;;;;;;;;;;;27.60;47.70;;;;;;5041443;28;19908;-80
2023/06/05 12:34:15;;;;;;;;;;;27.50;48.80;;;;;;5056170;28;19916;-80
2023/06/05 12:36:42;;;;;;;;;;;27.60;49.80;;;;;;5052955;28;19913;-80
2023/06/05 12:39:15;;;;;;;;;;;27.60;53.40;;;;;;5062626;28;19909;-81
2023/06/05 12:41:41;;;;;;;;;;;27.50;52.00;;;;;;5057607;28;19943;-81
2023/06/05 12:44:08;;;;;;;;;;;27.50;52.80;;;;;;5062194;28;20339;-81
2023/06/05 12:46:34;;;;;;;;;;;27.40;50.20;;;;;;5043835;28;19909;-80
2023/06/05 12:49:00;;;;;;;;;;;27.50;49.40;;;;;;5043966;28;19999;-80
2023/06/05 12:51:26;;;;;;;;;;;27.50;49.40;;;;;;5061930;28;19957;-80
2023/06/05 12:53:53;;;;;;;;;;;27.50;48.70;;;;;;5061811;28;20619;-81
2023/06/05 12:56:18;;;;;;;;;;;27.50;46.10;;;;;;5032372;28;19908;-80
2023/06/05 12:58:44;;;;;;;;;;;27.50;46.40;;;;;;5055726;28;19930;-81
2023/06/05 13:01:10;;;;;;;;;;;27.40;46.90;;;;;;5049620;28;19939;-80
2023/06/05 13:03:36;;;;;;;;;;;27.50;48.50;;;;;;5055217;28;19908;-80
2023/06/05 13:06:02;;;;;;;;;;;27.50;48.80;;;;;;5056553;28;19908;-80
2023/06/05 13:08:27;;;;;;;;;;;27.60;51.00;;;;;;5053094;28;19919;-81
2023/06/05 13:10:53;;;;;;;;;;;27.70;50.30;;;;;;5064374;28;20375;-80
2023/06/05 13:13:19;;;;;;;;;;;27.60;48.60;;;;;;5066136;28;19924;-80
2023/06/05 13:15:45;;;;;;;;;;;27.60;52.80;;;;;;5063623;28;20630;-80
2023/06/05 13:18:10;;;;;;;;;;;27.60;52.70;;;;;;5061334;28;19912;-80
2023/06/05 13:20:36;;;;;;;;;;;27.50;50.90;;;;;;5065293;28;20045;-81
2023/06/05 13:23:01;;;;;;;;;;;27.40;49.80;;;;;;5065589;28;20510;-80
2023/06/05 13:25:27;;;;;;;;;;;27.20;48.60;;;;;;5043582;28;20768;-81
2023/06/05 13:27:52;;;;;;;;;;;27.30;47.80;;;;;;5062854;28;19908;-81
2023/06/05 13:30:18;;;;;;;;;;;27.40;48.10;;;;;;5063024;28;19973;-81
2023/06/05 13:32:45;;;;;;;;;;;27.70;52.00;;;;;;5043176;28;19924;-80
2023/06/05 13:35:10;;;;;;;;;;;27.70;47.90;;;;;;5064652;28;19940;-80
2023/06/05 13:37:37;;;;;;;;;;;27.80;51.60;;;;;;5065400;28;19935;-80
2023/06/05 13:40:05;;;;;;;;;;;27.90;48.20;;;;;;5064866;28;19908;-81
2023/06/05 13:42:32;;;;;;;;;;;28.00;47.10;;;;;;5064629;28;20363;-80
2023/06/05 13:44:57;;;;;;;;;;;28.00;46.90;;;;;;5046384;28;20015;-80
2023/06/05 13:47:23;;;;;;;;;;;28.20;45.60;;;;;;5065596;28;20006;-80
2023/06/05 13:49:48;;;;;;;;;;;28.00;47.10;;;;;;5046312;28;19991;-81
2023/06/05 13:52:14;;;;;;;;;;;28.10;49.40;;;;;;5046417;28;19948;-80
2023/06/05 13:54:41;;;;;;;;;;;28.30;48.40;;;;;;5052105;28;20460;-80
2023/06/05 13:57:07;;;;;;;;;;;28.30;49.10;;;;;;5056983;28;19908;-80
2023/06/05 13:59:32;;;;;;;;;;;28.20;49.00;;;;;;5059680;28;20019;-81
2023/06/05 14:01:58;;;;;;;;;;;28.10;46.40;;;;;;5057686;28;19908;-81
2023/06/05 14:04:23;;;;;;;;;;;28.40;49.60;;;;;;5058030;28;20310;-80
2023/06/05 14:06:50;;;;;;;;;;;28.40;47.20;;;;;;5045946;28;20025;-80
2023/06/05 14:09:15;;;;;;;;;;;28.50;47.90;;;;;;5055971;28;20030;-80
2023/06/05 14:11:44;;;;;;;;;;;28.80;46.30;;;;;;5039895;28;19939;-81
2023/06/05 14:14:10;;;;;;;;;;;28.90;43.40;;;;;;5063048;28;19916;-80
2023/06/05 14:16:36;;;;;;;;;;;29.20;46.20;;;;;;5063974;28;19959;-80